Time;durP1;ratioP1;P1;durP2;ratioP2;P2;SDS_P1;SDS_P2;PMS_P1;PMS_P2;Temp;Humidity;BMP_temperature;BMP_pressure;BME280_temperature;BME280_humidity;BME280_pressure;Samples;Min_cycle;Max_cycle;Signal;HPM_P1;HPM_P2
2020/12/09 00:02:05;;;;;;;1.83;1.55;;;18.50;47.70;;;;;;5074167;28;20405;-45
2020/12/09 00:04:31;;;;;;;4.25;1.27;;;18.50;47.60;;;;;;5074135;28;20371;-46
2020/12/09 00:06:56;;;;;;;2.33;1.30;;;18.50;47.60;;;;;;5074626;28;20043;-46
2020/12/09 00:09:22;;;;;;;1.70;1.40;;;18.50;47.60;;;;;;5074058;28;20063;-47
2020/12/09 00:11:52;;;;;;;3.90;1.33;;;18.50;47.50;;;;;;5077163;28;20033;-47
2020/12/09 00:14:19;;;;;;;1.88;1.38;;;18.50;47.50;;;;;;5078090;28;20395;-46
2020/12/09 00:16:45;;;;;;;2.72;1.50;;;18.50;47.40;;;;;;5077916;28;20037;-48
2020/12/09 00:19:10;;;;;;;7.43;1.70;;;18.50;47.40;;;;;;5078217;28;20358;-46
2020/12/09 00:21:37;;;;;;;1.20;1.10;;;18.40;47.30;;;;;;5078132;28;20123;-47
2020/12/09 00:24:03;;;;;;;1.85;1.30;;;18.40;47.30;;;;;;5077970;28;20043;-48
2020/12/09 00:26:28;;;;;;;3.80;1.23;;;18.40;47.30;;;;;;5077746;28;20032;-48
2020/12/09 00:28:55;;;;;;;3.72;1.45;;;18.40;47.20;;;;;;5077697;28;20039;-48
2020/12/09 00:31:24;;;;;;;2.25;1.20;;;18.40;47.20;;;;;;5077723;28;20029;-48
2020/12/09 00:33:51;;;;;;;2.85;1.45;;;18.40;47.20;;;;;;5077659;28;20106;-47
2020/12/09 00:36:18;;;;;;;4.28;1.38;;;18.30;47.10;;;;;;5078091;28;20360;-48
2020/12/09 00:38:45;;;;;;;4.97;2.17;;;18.40;47.20;;;;;;5077779;28;20036;-46
2020/12/09 00:41:18;;;;;;;1.70;1.50;;;18.30;47.10;;;;;;5077157;28;20458;-46
2020/12/09 00:43:44;;;;;;;1.25;1.05;;;18.30;47.00;;;;;;5077344;28;20047;-46
2020/12/09 00:46:21;;;;;;;2.15;1.40;;;18.30;47.00;;;;;;5077425;28;20032;-46
2020/12/09 00:48:47;;;;;;;2.13;1.27;;;18.30;47.00;;;;;;5077890;28;20037;-48
2020/12/09 00:51:18;;;;;;;3.65;1.40;;;18.30;47.00;;;;;;5077502;28;20029;-46
2020/12/09 00:53:43;;;;;;;1.60;1.48;;;18.30;47.00;;;;;;5077379;28;20033;-46
2020/12/09 00:56:10;;;;;;;1.45;1.35;;;18.30;47.00;;;;;;5077070;28;20127;-46
2020/12/09 00:58:37;;;;;;;1.70;1.27;;;18.20;46.90;;;;;;5077240;28;20366;-46
2020/12/09 01:01:08;;;;;;;1.70;1.30;;;18.20;46.90;;;;;;5077502;28;20078;-46
2020/12/09 01:03:33;;;;;;;1.40;1.30;;;18.20;46.90;;;;;;5077079;28;20036;-46
2020/12/09 01:06:00;;;;;;;1.10;1.00;;;18.20;46.80;;;;;;5077077;28;20040;-47
2020/12/09 01:08:26;;;;;;;2.30;1.40;;;18.20;46.80;;;;;;5076831;28;20129;-48
2020/12/09 01:10:52;;;;;;;1.50;1.38;;;18.20;46.80;;;;;;5076686;28;20494;-51
2020/12/09 01:13:18;;;;;;;1.88;1.48;;;18.20;46.80;;;;;;5076686;28;20378;-56
2020/12/09 01:15:43;;;;;;;1.25;1.15;;;18.10;46.70;;;;;;5077247;28;20044;-47
2020/12/09 01:18:09;;;;;;;1.08;0.98;;;18.10;46.70;;;;;;5076555;28;20036;-46
2020/12/09 01:20:35;;;;;;;1.67;1.20;;;18.10;46.70;;;;;;5076929;28;20051;-46
2020/12/09 01:23:00;;;;;;;1.05;0.95;;;18.10;46.70;;;;;;5075365;28;20039;-46
2020/12/09 01:25:26;;;;;;;1.48;1.15;;;18.10;46.70;;;;;;5076956;28;20025;-46
2020/12/09 01:27:54;;;;;;;1.20;1.10;;;18.10;46.70;;;;;;5077040;28;20064;-45
2020/12/09 01:30:20;;;;;;;1.25;1.15;;;18.10;46.70;;;;;;5076643;28;20055;-46
2020/12/09 01:32:45;;;;;;;1.85;0.93;;;18.00;46.60;;;;;;5076235;28;20348;-47
2020/12/09 01:35:11;;;;;;;1.20;1.10;;;18.00;46.60;;;;;;5076419;28;20176;-47
2020/12/09 01:37:36;;;;;;;1.15;1.05;;;18.00;46.60;;;;;;5076528;28;20553;-48
2020/12/09 01:40:03;;;;;;;1.10;0.95;;;18.00;46.60;;;;;;5076388;28;20039;-47
2020/12/09 01:42:28;;;;;;;1.17;1.00;;;18.00;46.60;;;;;;5076828;28;20103;-48
2020/12/09 01:44:53;;;;;;;1.17;0.85;;;18.00;46.50;;;;;;5075970;28;20056;-49
2020/12/09 01:47:19;;;;;;;1.52;1.02;;;17.90;46.50;;;;;;5076601;28;20036;-47
2020/12/09 01:49:45;;;;;;;1.20;1.10;;;18.00;46.60;;;;;;5076265;28;20033;-48
2020/12/09 01:52:10;;;;;;;1.08;0.98;;;17.90;46.50;;;;;;5075975;28;20051;-47
2020/12/09 01:54:36;;;;;;;1.80;1.20;;;17.90;46.50;;;;;;5076011;28;20044;-46
2020/12/09 01:57:09;;;;;;;1.20;1.00;;;17.90;46.50;;;;;;5076301;28;20039;-49
2020/12/09 01:59:36;;;;;;;1.17;1.08;;;17.90;46.50;;;;;;5076015;28;20076;-46
2020/12/09 02:02:03;;;;;;;1.65;0.93;;;17.90;46.50;;;;;;5076097;28;20036;-45
2020/12/09 02:04:29;;;;;;;0.90;0.73;;;17.80;46.40;;;;;;5076034;28;20047;-48
2020/12/09 02:06:54;;;;;;;0.98;0.88;;;17.80;46.40;;;;;;5075919;28;20044;-48
2020/12/09 02:09:21;;;;;;;1.38;1.23;;;17.90;46.50;;;;;;5075972;28;20037;-46
2020/12/09 02:11:47;;;;;;;1.42;1.10;;;17.90;46.40;;;;;;5075778;28;20047;-48
2020/12/09 02:14:12;;;;;;;1.05;0.90;;;17.80;46.40;;;;;;5075684;28;20442;-47
2020/12/09 02:16:38;;;;;;;0.85;0.85;;;17.80;46.40;;;;;;5075647;28;20037;-48
2020/12/09 02:19:04;;;;;;;1.00;0.90;;;17.80;46.40;;;;;;5075669;28;20099;-47
2020/12/09 02:21:34;;;;;;;0.70;0.70;;;17.80;46.40;;;;;;5076019;28;20049;-47
2020/12/09 02:24:00;;;;;;;0.80;0.75;;;17.70;46.30;;;;;;5075846;28;20033;-48
2020/12/09 02:26:25;;;;;;;1.23;1.00;;;17.80;46.40;;;;;;5075468;28;20040;-46
2020/12/09 02:28:50;;;;;;;1.00;0.90;;;17.80;46.40;;;;;;5075814;28;20033;-47
2020/12/09 02:31:16;;;;;;;1.52;0.90;;;17.80;46.40;;;;;;5075505;28;20037;-46
2020/12/09 02:33:41;;;;;;;0.73;0.73;;;17.70;46.30;;;;;;5075330;28;20497;-47
2020/12/09 02:36:07;;;;;;;0.95;0.93;;;17.70;46.30;;;;;;5075523;28;20044;-47
2020/12/09 02:38:33;;;;;;;0.88;0.88;;;17.70;46.30;;;;;;5075581;28;20358;-46
2020/12/09 02:40:59;;;;;;;0.93;0.90;;;17.70;46.30;;;;;;5075671;28;20066;-47
2020/12/09 02:43:24;;;;;;;1.00;1.00;;;17.70;46.30;;;;;;5075271;28;20033;-48
2020/12/09 02:45:50;;;;;;;1.40;1.00;;;17.70;46.30;;;;;;5075341;28;20347;-48
2020/12/09 02:48:15;;;;;;;0.70;0.70;;;17.70;46.30;;;;;;5075114;28;20032;-48
2020/12/09 02:50:41;;;;;;;1.10;1.00;;;17.70;46.30;;;;;;5074706;28;20477;-47
2020/12/09 02:53:06;;;;;;;0.88;0.88;;;17.70;46.30;;;;;;5075477;28;20058;-48
2020/12/09 02:55:32;;;;;;;0.80;0.80;;;17.60;46.20;;;;;;5074619;28;20047;-48
2020/12/09 02:57:57;;;;;;;0.95;0.90;;;17.60;46.20;;;;;;5075351;28;20062;-47
2020/12/09 03:00:23;;;;;;;0.70;0.70;;;17.60;46.20;;;;;;5074692;28;20107;-51
2020/12/09 03:02:48;;;;;;;1.17;1.00;;;17.60;46.20;;;;;;5074966;28;20112;-45
2020/12/09 03:05:14;;;;;;;1.10;0.98;;;17.60;46.20;;;;;;5074800;28;20037;-45
2020/12/09 03:07:39;;;;;;;0.80;0.80;;;17.60;46.20;;;;;;5075040;28;20047;-48
2020/12/09 03:10:05;;;;;;;1.23;1.00;;;17.60;46.90;;;;;;5074541;28;20040;-47
2020/12/09 03:12:30;;;;;;;0.80;0.80;;;17.50;46.10;;;;;;5075072;28;20044;-46
2020/12/09 03:14:56;;;;;;;1.08;0.88;;;17.50;46.10;;;;;;5074592;28;20056;-47
2020/12/09 03:17:21;;;;;;;1.08;0.98;;;17.50;46.10;;;;;;5074323;28;20039;-46
2020/12/09 03:19:47;;;;;;;1.25;0.93;;;17.50;46.20;;;;;;5074546;28;20044;-48
2020/12/09 03:22:13;;;;;;;1.00;0.95;;;17.50;46.10;;;;;;5075056;28;20055;-47
2020/12/09 03:24:38;;;;;;;0.80;0.80;;;17.50;46.10;;;;;;5075100;28;20032;-46
2020/12/09 03:27:04;;;;;;;0.70;0.70;;;17.50;46.10;;;;;;5075168;28;20033;-47
2020/12/09 03:29:29;;;;;;;1.38;0.90;;;17.40;46.00;;;;;;5074707;28;20137;-46
2020/12/09 03:31:55;;;;;;;0.70;0.70;;;17.50;46.10;;;;;;5074810;28;20032;-48
2020/12/09 03:34:20;;;;;;;0.77;0.77;;;17.50;46.10;;;;;;5074110;28;20036;-47
2020/12/09 03:36:46;;;;;;;0.80;0.80;;;17.40;46.00;;;;;;5074648;28;20093;-48
2020/12/09 03:39:11;;;;;;;0.93;0.93;;;17.40;46.00;;;;;;5075113;28;20029;-47
2020/12/09 03:41:38;;;;;;;0.60;0.60;;;17.40;46.00;;;;;;5074612;28;20107;-45
2020/12/09 03:44:03;;;;;;;0.77;0.77;;;17.40;46.00;;;;;;5074258;28;20426;-47
2020/12/09 03:46:29;;;;;;;0.88;0.85;;;17.40;46.00;;;;;;5077268;28;20056;-47
2020/12/09 03:48:54;;;;;;;1.10;1.00;;;17.40;46.00;;;;;;5078576;28;20048;-48
2020/12/09 03:51:20;;;;;;;2.17;0.80;;;17.40;46.00;;;;;;5078496;28;20029;-45
2020/12/09 03:53:45;;;;;;;0.70;0.70;;;17.40;46.00;;;;;;5078646;28;20370;-47
2020/12/09 03:56:11;;;;;;;0.95;0.90;;;17.30;46.00;;;;;;5077931;28;20032;-49
2020/12/09 03:58:36;;;;;;;0.73;0.73;;;17.30;46.00;;;;;;5078701;28;20107;-46
2020/12/09 04:01:02;;;;;;;0.90;0.80;;;17.30;46.00;;;;;;5077945;28;20062;-48
2020/12/09 04:03:27;;;;;;;0.80;0.80;;;17.40;46.00;;;;;;5078212;28;20043;-47
2020/12/09 04:05:53;;;;;;;0.75;0.75;;;17.30;46.00;;;;;;5078383;28;20060;-46
2020/12/09 04:08:18;;;;;;;0.80;0.80;;;17.30;46.00;;;;;;5078138;28;20111;-48
2020/12/09 04:10:44;;;;;;;0.90;0.90;;;17.30;46.00;;;;;;5078377;28;20107;-47
2020/12/09 04:13:09;;;;;;;1.10;0.90;;;17.30;46.00;;;;;;5078315;28;20037;-47
2020/12/09 04:15:35;;;;;;;0.75;0.75;;;17.20;45.90;;;;;;5077609;28;20056;-48
2020/12/09 04:18:00;;;;;;;0.80;0.80;;;17.30;46.00;;;;;;5060412;28;20116;-49
2020/12/09 04:20:26;;;;;;;0.82;0.82;;;17.30;45.90;;;;;;5077682;28;20048;-47
2020/12/09 04:22:51;;;;;;;0.80;0.80;;;17.30;45.90;;;;;;5077944;28;20134;-48
2020/12/09 04:25:17;;;;;;;0.82;0.82;;;17.20;45.90;;;;;;5077934;28;20354;-46
2020/12/09 04:27:42;;;;;;;1.00;0.90;;;17.20;45.90;;;;;;5077804;28;20031;-45
2020/12/09 04:30:08;;;;;;;1.67;0.90;;;17.20;45.90;;;;;;5077729;28;20114;-46
2020/12/09 04:32:33;;;;;;;0.98;0.98;;;17.20;45.90;;;;;;5077664;28;20111;-47
2020/12/09 04:34:59;;;;;;;0.90;0.90;;;17.20;45.90;;;;;;5077623;28;20072;-47
2020/12/09 04:37:27;;;;;;;0.90;0.90;;;17.20;45.90;;;;;;5078074;28;20040;-45
2020/12/09 04:39:57;;;;;;;0.80;0.80;;;17.20;45.90;;;;;;5078038;28;20035;-47
2020/12/09 04:42:24;;;;;;;0.90;0.90;;;17.20;45.90;;;;;;5077765;28;20113;-46
2020/12/09 04:44:52;;;;;;;0.93;0.93;;;17.20;45.90;;;;;;5077899;28;20359;-48
2020/12/09 04:47:28;;;;;;;0.80;0.80;;;17.20;45.90;;;;;;5077223;28;20021;-45
2020/12/09 04:50:21;;;;;;;1.65;0.95;;;17.20;45.90;;;;;;5077434;28;20043;-45
2020/12/09 04:53:01;;;;;;;0.88;0.88;;;17.20;45.90;;;;;;5074041;28;20101;-46
2020/12/09 04:55:31;;;;;;;0.80;0.80;;;17.10;45.80;;;;;;5077312;28;20044;-46
2020/12/09 04:57:56;;;;;;;1.60;0.98;;;17.10;45.80;;;;;;5076013;28;20029;-46
2020/12/09 05:00:22;;;;;;;1.45;1.35;;;17.10;45.80;;;;;;5077461;28;20048;-46
2020/12/09 05:02:53;;;;;;;1.30;1.20;;;17.10;45.80;;;;;;5076902;28;20029;-45
2020/12/09 05:05:21;;;;;;;1.25;1.15;;;17.10;45.90;;;;;;5077282;28;20078;-46
2020/12/09 05:07:49;;;;;;;1.40;1.30;;;17.10;45.90;;;;;;5077207;28;20115;-47
2020/12/09 05:10:17;;;;;;;1.58;1.30;;;17.10;45.90;;;;;;5076970;28;20028;-45
2020/12/09 05:12:50;;;;;;;1.20;1.10;;;17.10;45.90;;;;;;5076913;28;20032;-46
2020/12/09 05:15:21;;;;;;;1.17;1.08;;;17.10;45.90;;;;;;5076849;28;20184;-47
2020/12/09 05:17:58;;;;;;;1.60;1.25;;;17.10;45.90;;;;;;5076865;28;20112;-49
2020/12/09 05:20:29;;;;;;;1.42;1.33;;;17.10;45.90;;;;;;5077029;28;20082;-46
2020/12/09 05:22:55;;;;;;;1.40;1.27;;;17.00;45.80;;;;;;5076928;28;20032;-46
2020/12/09 05:25:23;;;;;;;2.10;1.52;;;17.00;45.80;;;;;;5076757;28;20053;-46
2020/12/09 05:27:48;;;;;;;1.58;1.30;;;17.10;45.90;;;;;;5076868;28;20393;-48
2020/12/09 05:30:41;;;;;;;1.40;1.30;;;17.00;45.80;;;;;;5076582;28;20115;-45
2020/12/09 05:33:08;;;;;;;1.40;1.30;;;17.00;45.80;;;;;;5076303;28;20032;-47
2020/12/09 05:35:34;;;;;;;1.60;1.40;;;17.00;45.90;;;;;;5076308;28;20059;-49
2020/12/09 05:38:14;;;;;;;1.13;1.02;;;17.00;45.80;;;;;;5076992;28;20032;-50
2020/12/09 05:40:44;;;;;;;1.08;0.98;;;17.00;45.80;;;;;;5076093;28;20036;-48
2020/12/09 05:43:12;;;;;;;1.38;1.27;;;17.00;45.80;;;;;;5076503;28;20457;-47
2020/12/09 05:45:39;;;;;;;1.38;1.27;;;17.00;45.90;;;;;;5076476;28;20145;-46
2020/12/09 05:48:15;;;;;;;2.00;1.65;;;17.00;45.90;;;;;;5076250;28;20041;-46
2020/12/09 05:50:46;;;;;;;1.58;1.15;;;17.00;45.80;;;;;;5076200;28;20078;-46
2020/12/09 05:53:21;;;;;;;1.40;1.30;;;16.90;45.80;;;;;;5076249;28;20379;-47
2020/12/09 05:55:48;;;;;;;1.60;1.50;;;17.00;45.90;;;;;;5075926;28;20347;-47
2020/12/09 05:58:20;;;;;;;1.48;1.38;;;17.00;45.90;;;;;;5076099;28;20522;-45
2020/12/09 06:01:13;;;;;;;1.55;1.40;;;17.00;45.90;;;;;;5076305;28;20371;-49
2020/12/09 06:03:48;;;;;;;1.80;1.65;;;16.90;45.90;;;;;;5075920;28;20043;-48
2020/12/09 06:06:24;;;;;;;1.75;1.65;;;16.90;45.90;;;;;;5075742;28;20033;-47
2020/12/09 06:08:51;;;;;;;1.60;1.50;;;16.90;45.90;;;;;;5075202;28;20117;-48
2020/12/09 06:11:19;;;;;;;2.10;1.90;;;16.90;45.90;;;;;;5075643;28;20067;-47
2020/12/09 06:13:45;;;;;;;2.10;1.90;;;16.90;45.90;;;;;;5075581;28;20150;-48
2020/12/09 06:16:12;;;;;;;2.00;1.88;;;16.90;45.90;;;;;;5075159;28;20177;-48
